createdAt,value
2022-09-26T00:01:06.959Z,51.55
2022-09-26T00:03:34.336Z,51.70
2022-09-26T00:06:08.279Z,51.69
2022-09-26T00:08:36.022Z,51.53
2022-09-26T00:11:04.266Z,51.81
2022-09-26T00:13:31.515Z,51.75
2022-09-26T00:15:58.589Z,51.55
2022-09-26T00:18:25.425Z,51.80
2022-09-26T00:20:52.390Z,51.47
2022-09-26T00:23:19.498Z,51.51
2022-09-26T00:25:47.320Z,51.79
2022-09-26T00:28:14.469Z,51.87
2022-09-26T00:30:41.818Z,51.91
2022-09-26T00:33:08.652Z,51.96
2022-09-26T00:35:35.428Z,51.79
2022-09-26T00:38:02.608Z,51.97
2022-09-26T00:40:30.678Z,52.07
2022-09-26T00:42:58.278Z,51.71
2022-09-26T00:45:27.554Z,52.02
2022-09-26T00:47:59.536Z,51.83
2022-09-26T00:50:31.120Z,51.93
2022-09-26T00:53:01.216Z,52.07
2022-09-26T00:55:30.830Z,52.00
2022-09-26T00:58:04.549Z,52.01
2022-09-26T01:00:31.892Z,52.24
2022-09-26T01:02:58.729Z,52.19
2022-09-26T01:05:25.583Z,51.84
2022-09-26T01:07:53.092Z,52.05
2022-09-26T01:10:19.976Z,52.19
2022-09-26T01:12:46.915Z,52.24
2022-09-26T01:15:13.998Z,52.07
2022-09-26T01:17:42.048Z,52.03
2022-09-26T01:20:23.398Z,52.10
2022-09-26T01:23:18.546Z,52.27
2022-09-26T01:25:58.079Z,52.10
2022-09-26T01:28:53.231Z,52.26
2022-09-26T01:31:29.150Z,52.27
2022-09-26T01:34:22.691Z,52.17
2022-09-26T01:37:14.468Z,52.28
2022-09-26T01:40:12.367Z,52.64
2022-09-26T01:43:10.049Z,52.43
2022-09-26T01:46:00.879Z,52.52
2022-09-26T01:48:31.185Z,52.40
2022-09-26T01:51:22.047Z,52.48
2022-09-26T01:53:57.868Z,52.54
2022-09-26T01:56:27.569Z,52.45
2022-09-26T01:59:00.176Z,52.55
2022-09-26T02:01:28.559Z,52.53
2022-09-26T02:03:57.004Z,52.16
2022-09-26T02:06:48.708Z,52.64
2022-09-26T02:09:17.552Z,52.63
2022-09-26T02:11:45.924Z,52.33
2022-09-26T02:14:25.621Z,52.05
2022-09-26T02:16:54.986Z,52.58
2022-09-26T02:19:24.314Z,52.30
2022-09-26T02:21:51.201Z,52.45
2022-09-26T02:24:18.372Z,52.68
2022-09-26T02:26:45.256Z,52.58
2022-09-26T02:29:12.624Z,52.71
2022-09-26T02:31:52.329Z,52.63
2022-09-26T02:34:19.197Z,52.58
2022-09-26T02:36:46.388Z,52.50
2022-09-26T02:39:13.320Z,52.69
2022-09-26T02:41:48.349Z,52.37
2022-09-26T02:44:21.288Z,52.49
2022-09-26T02:46:56.888Z,52.55
2022-09-26T02:49:45.450Z,52.47
2022-09-26T02:52:39.624Z,52.72
2022-09-26T02:55:28.071Z,52.34
2022-09-26T02:58:04.092Z,52.69
2022-09-26T03:00:45.223Z,52.31
2022-09-26T03:03:22.705Z,52.65
2022-09-26T03:05:51.360Z,52.86
2022-09-26T03:08:23.392Z,52.52
2022-09-26T03:10:50.419Z,52.83
2022-09-26T03:13:17.277Z,52.61
2022-09-26T03:15:46.297Z,52.47
2022-09-26T03:18:21.040Z,52.69
2022-09-26T03:20:48.071Z,52.85
2022-09-26T03:23:15.095Z,53.12
2022-09-26T03:25:41.851Z,52.63
2022-09-26T03:28:10.544Z,52.84
2022-09-26T03:30:38.477Z,53.23
2022-09-26T03:33:05.313Z,52.78
2022-09-26T03:35:32.175Z,52.96
2022-09-26T03:37:59.174Z,52.61
2022-09-26T03:40:26.595Z,52.91
2022-09-26T03:42:53.484Z,52.74
2022-09-26T03:45:21.194Z,52.85
2022-09-26T03:47:48.095Z,52.79
2022-09-26T03:50:15.110Z,52.78
2022-09-26T03:52:42.207Z,53.02
2022-09-26T03:55:09.303Z,52.78
2022-09-26T03:57:36.115Z,52.95
2022-09-26T04:00:04.294Z,52.96
2022-09-26T04:02:31.136Z,53.11
2022-09-26T04:04:57.979Z,52.91
2022-09-26T04:07:25.012Z,52.77
2022-09-26T04:09:52.142Z,53.24
2022-09-26T04:12:20.095Z,52.81
2022-09-26T04:14:47.143Z,53.02
2022-09-26T04:17:13.922Z,53.10
2022-09-26T04:19:40.665Z,52.93
2022-09-26T04:22:10.630Z,52.95
2022-09-26T04:24:37.512Z,52.89
2022-09-26T04:27:04.926Z,52.86
2022-09-26T04:29:31.983Z,52.92
2022-09-26T04:31:58.821Z,52.91
2022-09-26T04:34:27.522Z,52.85
2022-09-26T04:36:55.189Z,52.66
2022-09-26T04:39:22.377Z,53.54
2022-09-26T04:41:49.146Z,53.14
2022-09-26T04:44:16.169Z,53.27
2022-09-26T04:46:42.938Z,53.00
2022-09-26T04:49:09.830Z,53.28
2022-09-26T04:51:37.548Z,53.40
2022-09-26T04:54:04.481Z,52.92
2022-09-26T04:56:31.761Z,53.30
2022-09-26T04:58:59.366Z,53.04
2022-09-26T05:01:26.321Z,52.95
2022-09-26T05:03:55.584Z,53.00
2022-09-26T05:06:22.608Z,52.98
2022-09-26T05:08:49.422Z,53.18
2022-09-26T05:11:17.176Z,52.98
2022-09-26T05:13:45.002Z,53.04
2022-09-26T05:16:13.183Z,53.08
2022-09-26T05:18:41.017Z,52.90
2022-09-26T05:21:08.284Z,52.97
2022-09-26T05:23:53.721Z,53.13
2022-09-26T05:26:40.857Z,53.01
2022-09-26T05:29:09.055Z,52.61
2022-09-26T05:31:37.776Z,53.10
2022-09-26T05:34:06.085Z,53.23
2022-09-26T05:36:32.969Z,53.26
2022-09-26T05:39:00.341Z,53.19
2022-09-26T05:41:29.624Z,52.70
2022-09-26T05:43:56.475Z,53.15
2022-09-26T05:46:23.792Z,53.11
2022-09-26T05:48:50.748Z,53.01
2022-09-26T05:51:18.434Z,52.98
2022-09-26T05:53:45.994Z,53.15
2022-09-26T05:56:18.497Z,53.16
2022-09-26T05:58:46.341Z,53.04
2022-09-26T06:01:15.450Z,53.22
2022-09-26T06:03:43.221Z,53.22
2022-09-26T06:06:12.651Z,53.29
2022-09-26T06:08:39.570Z,53.49
2022-09-26T06:11:08.355Z,53.19
2022-09-26T06:13:35.639Z,53.07
2022-09-26T06:16:06.512Z,53.60
2022-09-26T06:18:37.090Z,53.33
2022-09-26T06:21:04.519Z,53.35
2022-09-26T06:23:32.207Z,53.24
2022-09-26T06:25:59.200Z,53.54
2022-09-26T06:28:27.050Z,53.27
2022-09-26T06:30:54.365Z,53.23
2022-09-26T06:33:21.602Z,53.16
2022-09-26T06:35:48.438Z,53.18
2022-09-26T06:38:15.185Z,53.36
2022-09-26T06:40:42.354Z,53.03
2022-09-26T06:43:09.348Z,53.13
2022-09-26T06:45:36.182Z,53.36
2022-09-26T06:48:03.363Z,53.16
2022-09-26T06:50:30.157Z,53.41
2022-09-26T06:52:57.009Z,53.35
2022-09-26T06:55:24.033Z,53.36
2022-09-26T06:57:50.905Z,53.51
2022-09-26T07:00:18.072Z,53.61
2022-09-26T07:02:52.461Z,53.20
2022-09-26T07:05:20.358Z,53.66
2022-09-26T07:07:49.084Z,53.70
2022-09-26T07:10:18.649Z,53.34
2022-09-26T07:12:47.220Z,53.60
2022-09-26T07:15:19.679Z,53.34
2022-09-26T07:17:48.229Z,53.31
2022-09-26T07:20:19.569Z,53.55
2022-09-26T07:22:46.798Z,53.47
2022-09-26T07:25:13.962Z,53.73
2022-09-26T07:27:41.049Z,53.85
2022-09-26T07:30:09.129Z,53.60
2022-09-26T07:32:39.393Z,53.52
2022-09-26T07:35:07.145Z,53.67
2022-09-26T07:37:34.006Z,53.69
2022-09-26T07:40:02.013Z,53.46
2022-09-26T07:42:29.076Z,53.55
2022-09-26T07:48:01.434Z,53.36
2022-09-26T07:50:28.238Z,53.34
2022-09-26T07:52:56.304Z,53.31
2022-09-26T07:55:26.221Z,53.26
2022-09-26T07:57:53.024Z,52.93
2022-09-26T08:00:21.492Z,53.35
2022-09-26T08:02:48.895Z,53.08
2022-09-26T08:05:17.711Z,52.65
2022-09-26T08:07:45.051Z,52.74
2022-09-26T08:10:22.317Z,53.00
2022-09-26T08:12:49.824Z,52.96
2022-09-26T08:15:16.846Z,53.20
2022-09-26T08:17:43.633Z,52.91
2022-09-26T08:20:11.088Z,53.09
2022-09-26T08:22:38.026Z,53.15
2022-09-26T08:25:06.938Z,52.95
2022-09-26T08:27:34.312Z,52.79
2022-09-26T08:30:04.271Z,52.84
2022-09-26T08:32:32.287Z,53.17
2022-09-26T08:35:00.276Z,53.29
2022-09-26T08:37:28.067Z,53.14
2022-09-26T08:39:54.941Z,53.25
2022-09-26T08:42:43.832Z,53.35
2022-09-26T08:45:57.460Z,53.36
2022-09-26T08:48:34.284Z,53.39
2022-09-26T08:51:28.374Z,53.08
2022-09-26T08:54:01.707Z,53.42
2022-09-26T08:56:35.049Z,52.75
2022-09-26T08:59:03.587Z,52.96
2022-09-26T09:01:31.339Z,53.05
2022-09-26T09:04:13.536Z,52.91
2022-09-26T09:06:40.597Z,53.16
2022-09-26T09:09:07.512Z,52.19
2022-09-26T09:11:58.012Z,52.73
2022-09-26T09:15:14.086Z,52.36
2022-09-26T09:18:12.625Z,52.56
2022-09-26T09:21:06.263Z,52.18
2022-09-26T09:24:12.398Z,51.84
2022-09-26T09:29:34.896Z,51.79
2022-09-26T09:32:02.088Z,51.39
2022-09-26T09:34:32.153Z,51.73
2022-09-26T09:37:01.619Z,51.43
2022-09-26T09:39:34.343Z,51.12
2022-09-26T09:42:16.687Z,51.62
2022-09-26T09:44:49.153Z,50.91
2022-09-26T09:47:17.264Z,51.07
2022-09-26T09:49:46.465Z,50.75
2022-09-26T09:52:36.117Z,51.07
2022-09-26T09:55:28.180Z,50.38
2022-09-26T09:57:57.980Z,50.61
2022-09-26T10:00:25.219Z,50.45
2022-09-26T10:02:56.608Z,50.42
2022-09-26T10:05:28.498Z,50.48
2022-09-26T10:07:58.242Z,50.31
2022-09-26T10:10:40.154Z,49.80
2022-09-26T10:13:11.118Z,50.33
2022-09-26T10:15:43.550Z,49.66
2022-09-26T10:18:30.581Z,49.31
2022-09-26T10:20:59.324Z,49.56
2022-09-26T10:23:28.341Z,49.84
2022-09-26T10:26:00.143Z,49.18
2022-09-26T10:28:35.988Z,49.60
2022-09-26T10:31:08.407Z,49.70
2022-09-26T10:33:37.164Z,49.36
2022-09-26T10:36:17.143Z,49.51
2022-09-26T10:39:16.169Z,49.17
2022-09-26T10:41:45.031Z,49.67
2022-09-26T10:44:26.042Z,49.01
2022-09-26T10:46:56.563Z,49.08
2022-09-26T10:49:31.541Z,48.78
2022-09-26T10:52:16.100Z,49.08
2022-09-26T10:54:55.130Z,48.97
2022-09-26T10:57:28.133Z,49.19
2022-09-26T10:59:56.298Z,49.02
2022-09-26T11:02:23.707Z,48.83
2022-09-26T11:05:15.359Z,49.12
2022-09-26T11:07:43.963Z,48.60
2022-09-26T11:10:12.959Z,48.79
2022-09-26T11:12:55.234Z,49.10
2022-09-26T11:15:23.423Z,48.92
2022-09-26T11:17:52.297Z,48.53
2022-09-26T11:20:43.743Z,48.65
2022-09-26T11:23:22.979Z,49.17
2022-09-26T11:26:18.561Z,48.80
2022-09-26T11:29:02.063Z,48.29
2022-09-26T11:31:30.695Z,48.56
2022-09-26T11:33:59.426Z,48.26
2022-09-26T11:36:46.945Z,48.65
2022-09-26T11:39:31.079Z,48.58
2022-09-26T11:42:35.562Z,48.23
2022-09-26T11:45:29.504Z,48.11
2022-09-26T11:48:06.569Z,48.49
2022-09-26T11:50:40.041Z,48.03
2022-09-26T11:53:34.286Z,47.89
2022-09-26T11:56:16.300Z,48.13
2022-09-26T11:58:54.998Z,48.28
2022-09-26T12:01:54.908Z,47.98
2022-09-26T12:04:37.358Z,48.33
2022-09-26T12:07:10.350Z,48.14
2022-09-26T12:09:53.697Z,48.24
2022-09-26T12:12:29.055Z,48.01
2022-09-26T12:14:58.529Z,47.87
2022-09-26T12:17:48.703Z,48.07
2022-09-26T12:20:51.530Z,47.77
2022-09-26T12:23:29.897Z,47.77
2022-09-26T12:26:34.804Z,47.23
2022-09-26T12:29:18.891Z,47.40
2022-09-26T12:31:52.842Z,47.52
2022-09-26T12:34:27.173Z,47.21
2022-09-26T12:37:21.379Z,47.25
2022-09-26T12:40:09.719Z,47.17
2022-09-26T12:43:07.275Z,46.95
2022-09-26T12:45:40.650Z,46.83
2022-09-26T12:48:21.082Z,46.96
2022-09-26T12:51:06.296Z,47.35
2022-09-26T12:53:37.979Z,46.95
2022-09-26T12:56:26.728Z,47.08
2022-09-26T12:58:59.614Z,47.50
2022-09-26T13:01:43.617Z,46.77
2022-09-26T13:04:44.694Z,46.81
2022-09-26T13:07:20.936Z,47.09
2022-09-26T13:10:13.064Z,47.12
2022-09-26T13:12:46.005Z,46.85
2022-09-26T13:15:17.442Z,47.63
2022-09-26T13:17:47.109Z,47.60
2022-09-26T13:20:27.149Z,47.73
2022-09-26T13:23:02.470Z,47.74
2022-09-26T13:25:29.871Z,47.31
2022-09-26T13:28:05.152Z,47.22
2022-09-26T13:30:35.872Z,47.03
2022-09-26T13:33:26.220Z,47.14
2022-09-26T13:35:54.263Z,47.61
2022-09-26T13:38:35.959Z,47.47
2022-09-26T13:41:40.690Z,47.22
2022-09-26T13:44:10.131Z,47.77
2022-09-26T13:47:13.418Z,47.58
2022-09-26T13:49:55.627Z,47.17
2022-09-26T13:52:52.947Z,47.36
2022-09-26T13:55:21.744Z,47.37
2022-09-26T13:58:04.164Z,47.36
2022-09-26T14:00:31.472Z,48.03
2022-09-26T14:03:10.975Z,47.60
2022-09-26T14:05:41.086Z,47.47
2022-09-26T14:08:45.563Z,47.81
2022-09-26T14:11:19.640Z,47.36
2022-09-26T14:13:47.151Z,46.93
2022-09-26T14:16:34.835Z,47.05
2022-09-26T14:19:11.551Z,46.58
2022-09-26T14:22:02.501Z,46.43
2022-09-26T14:24:38.422Z,46.77
2022-09-26T14:27:11.580Z,46.61
2022-09-26T14:29:38.458Z,46.35
2022-09-26T14:32:09.781Z,46.51
2022-09-26T14:34:43.589Z,46.88
2022-09-26T14:37:19.455Z,46.35
2022-09-26T14:39:46.541Z,46.53
2022-09-26T14:42:24.383Z,46.70
2022-09-26T14:44:56.104Z,46.41
2022-09-26T14:47:23.143Z,46.51
2022-09-26T14:49:55.202Z,46.89
2022-09-26T14:52:22.266Z,46.78
2022-09-26T14:54:49.127Z,46.55
2022-09-26T14:57:25.154Z,46.94
2022-09-26T14:59:52.390Z,47.00
2022-09-26T15:02:40.665Z,46.78
2022-09-26T15:05:12.594Z,46.95
2022-09-26T15:07:45.343Z,46.61
2022-09-26T15:10:13.293Z,46.70
2022-09-26T15:12:44.937Z,46.72
2022-09-26T15:15:39.161Z,46.65
2022-09-26T15:18:15.237Z,46.60
2022-09-26T15:20:50.002Z,46.56
2022-09-26T15:23:20.322Z,47.12
2022-09-26T15:25:47.181Z,46.82
2022-09-26T15:28:14.021Z,46.83
2022-09-26T15:30:41.960Z,46.69
2022-09-26T15:33:16.624Z,47.05
2022-09-26T15:35:53.982Z,46.79
2022-09-26T15:38:20.834Z,46.86
2022-09-26T15:41:04.218Z,46.43
2022-09-26T15:43:34.536Z,46.57
2022-09-26T15:46:07.333Z,46.52
2022-09-26T15:48:36.569Z,46.49
2022-09-26T15:51:08.932Z,46.75
2022-09-26T15:53:39.602Z,46.95
2022-09-26T15:56:19.346Z,47.16
2022-09-26T15:58:53.449Z,46.79
2022-09-26T16:01:21.880Z,47.18
2022-09-26T16:03:55.856Z,46.90
2022-09-26T16:06:27.100Z,47.38
2022-09-26T16:09:00.529Z,47.58
2022-09-26T16:11:27.761Z,47.69
2022-09-26T16:13:56.495Z,47.58
2022-09-26T16:16:31.975Z,47.42
2022-09-26T16:19:01.283Z,47.28
2022-09-26T16:21:32.383Z,47.48
2022-09-26T16:24:01.394Z,47.66
2022-09-26T16:26:32.529Z,47.69
2022-09-26T16:29:00.267Z,47.77
2022-09-26T16:31:39.642Z,47.92
2022-09-26T16:34:21.259Z,48.19
2022-09-26T16:36:48.430Z,47.88
2022-09-26T16:39:21.257Z,48.41
2022-09-26T16:42:12.421Z,48.42
2022-09-26T16:44:41.162Z,48.20
2022-09-26T16:47:33.286Z,48.31
2022-09-26T16:50:31.290Z,48.16
2022-09-26T16:52:58.373Z,48.25
2022-09-26T16:55:25.728Z,48.51
2022-09-26T16:57:57.567Z,48.60
2022-09-26T17:00:51.951Z,48.40
2022-09-26T17:03:22.740Z,48.52
2022-09-26T17:05:50.223Z,48.31
2022-09-26T17:08:17.817Z,49.00
2022-09-26T17:10:45.540Z,48.48
2022-09-26T17:13:17.657Z,48.95
2022-09-26T17:15:45.760Z,48.90
2022-09-26T17:18:12.860Z,49.05
2022-09-26T17:20:40.957Z,49.42
2022-09-26T17:23:34.855Z,49.37
2022-09-26T17:25:57.823Z,49.36
2022-09-26T17:28:37.552Z,49.45
2022-09-26T17:31:07.710Z,49.50
2022-09-26T17:33:40.680Z,49.47
2022-09-26T17:36:11.035Z,49.50
2022-09-26T17:38:41.763Z,49.48
2022-09-26T17:41:12.590Z,49.07
2022-09-26T17:43:39.639Z,49.58
2022-09-26T17:46:12.716Z,49.61
2022-09-26T17:48:42.880Z,49.49
2022-09-26T17:51:12.008Z,49.67
2022-09-26T17:53:44.157Z,49.83
2022-09-26T17:56:13.360Z,49.50
2022-09-26T17:58:42.160Z,49.65
2022-09-26T18:01:16.082Z,49.46
2022-09-26T18:03:43.710Z,49.59
2022-09-26T18:06:10.528Z,49.39
2022-09-26T18:08:37.364Z,49.76
2022-09-26T18:11:10.982Z,49.35
2022-09-26T18:13:39.419Z,49.38
2022-09-26T18:16:07.302Z,49.49
2022-09-26T18:18:34.631Z,49.34
2022-09-26T18:21:04.200Z,49.40
2022-09-26T18:23:44.339Z,49.93
2022-09-26T18:26:42.175Z,49.75
2022-09-26T18:29:10.523Z,49.74
2022-09-26T18:31:39.313Z,49.50
2022-09-26T18:34:06.538Z,49.71
2022-09-26T18:36:33.572Z,49.58
2022-09-26T18:39:00.673Z,49.99
2022-09-26T18:41:28.824Z,49.96
2022-09-26T18:43:58.798Z,49.68
2022-09-26T18:46:25.794Z,50.06
2022-09-26T18:48:55.072Z,50.37
2022-09-26T18:51:22.400Z,49.99
2022-09-26T18:53:49.278Z,50.31
2022-09-26T18:56:35.335Z,49.85
2022-09-26T18:59:02.491Z,50.37
2022-09-26T19:01:37.888Z,49.83
2022-09-26T19:04:06.694Z,49.99
2022-09-26T19:06:41.719Z,49.97
2022-09-26T19:09:32.262Z,49.97
2022-09-26T19:11:59.314Z,49.83
2022-09-26T19:14:30.403Z,50.01
2022-09-26T19:16:57.607Z,50.04
2022-09-26T19:19:24.750Z,49.92
2022-09-26T19:21:52.346Z,50.61
2022-09-26T19:24:22.607Z,50.15
2022-09-26T19:26:54.805Z,50.27
2022-09-26T19:29:32.764Z,50.39
2022-09-26T19:32:00.184Z,50.26
2022-09-26T19:34:32.567Z,50.47
2022-09-26T19:37:01.494Z,50.63
2022-09-26T19:39:28.664Z,50.42
2022-09-26T19:41:55.789Z,50.68
2022-09-26T19:44:24.362Z,50.51
2022-09-26T19:46:51.520Z,50.82
2022-09-26T19:49:18.891Z,50.65
2022-09-26T19:51:46.126Z,50.64
2022-09-26T19:54:18.143Z,50.90
2022-09-26T19:56:45.728Z,50.98
2022-09-26T19:59:13.855Z,50.71
2022-09-26T20:01:41.491Z,50.67
2022-09-26T20:04:20.369Z,50.98
2022-09-26T20:06:47.544Z,51.05
2022-09-26T20:09:18.671Z,51.13
2022-09-26T20:11:45.712Z,51.17
2022-09-26T20:14:24.868Z,50.76
2022-09-26T20:16:56.791Z,50.93
2022-09-26T20:19:35.387Z,50.93
2022-09-26T20:22:03.561Z,51.05
2022-09-26T20:24:31.599Z,50.94
2022-09-26T20:26:59.736Z,50.99
2022-09-26T20:29:26.546Z,50.95
2022-09-26T20:31:53.740Z,50.80
2022-09-26T20:34:20.601Z,51.21
2022-09-26T20:36:51.333Z,51.15
2022-09-26T20:39:24.845Z,51.06
2022-09-26T20:41:51.780Z,51.25
2022-09-26T20:44:27.003Z,51.05
2022-09-26T20:46:58.276Z,51.50
2022-09-26T20:49:31.760Z,51.33
2022-09-26T20:51:58.811Z,51.21
2022-09-26T20:54:30.939Z,51.28
2022-09-26T20:56:58.632Z,51.25
2022-09-26T20:59:25.850Z,51.09
2022-09-26T21:01:53.192Z,51.38
2022-09-26T21:04:21.952Z,51.16
2022-09-26T21:06:49.003Z,51.43
2022-09-26T21:09:17.039Z,51.05
2022-09-26T21:11:45.298Z,51.29
2022-09-26T21:14:12.126Z,51.12
2022-09-26T21:16:44.210Z,51.28
2022-09-26T21:19:14.600Z,51.50
2022-09-26T21:21:41.460Z,51.24
2022-09-26T21:24:12.771Z,51.61
2022-09-26T21:26:39.835Z,51.24
2022-09-26T21:29:06.627Z,51.33
2022-09-26T21:31:33.999Z,51.48
2022-09-26T21:34:01.241Z,51.21
2022-09-26T21:36:35.176Z,51.59
2022-09-26T21:39:02.485Z,51.47
2022-09-26T21:41:29.571Z,51.20
2022-09-26T21:44:01.651Z,51.22
2022-09-26T21:46:29.094Z,51.44
2022-09-26T21:48:55.965Z,51.51
2022-09-26T21:51:24.511Z,51.36
2022-09-26T21:53:56.335Z,51.76
2022-09-26T21:56:25.898Z,51.48
2022-09-26T21:58:53.037Z,51.69
2022-09-26T22:01:20.411Z,51.61
2022-09-26T22:03:47.304Z,51.36
2022-09-26T22:06:14.367Z,51.51
2022-09-26T22:08:41.178Z,51.61
2022-09-26T22:11:09.085Z,51.78
2022-09-26T22:13:37.741Z,51.70
2022-09-26T22:16:11.348Z,51.99
2022-09-26T22:18:41.842Z,51.32
2022-09-26T22:21:09.458Z,51.82
2022-09-26T22:23:36.402Z,51.82
2022-09-26T22:26:03.734Z,51.76
2022-09-26T22:28:30.729Z,51.63
2022-09-26T22:31:01.891Z,51.67
2022-09-26T22:33:29.124Z,51.92
2022-09-26T22:35:56.046Z,51.71
2022-09-26T22:38:22.926Z,51.60
2022-09-26T22:41:00.061Z,51.71
2022-09-26T22:43:28.242Z,51.67
2022-09-26T22:46:06.723Z,51.53
2022-09-26T22:48:34.230Z,51.89
2022-09-26T22:51:01.417Z,51.88
2022-09-26T22:53:28.369Z,51.73
2022-09-26T22:55:55.647Z,51.85
2022-09-26T22:58:23.148Z,51.77
2022-09-26T23:00:50.069Z,51.89
2022-09-26T23:03:17.545Z,52.17
2022-09-26T23:05:47.033Z,51.89
2022-09-26T23:08:14.013Z,52.07
2022-09-26T23:10:48.405Z,52.01
2022-09-26T23:13:15.449Z,51.95
2022-09-26T23:15:42.377Z,51.92
2022-09-26T23:18:09.838Z,51.79
2022-09-26T23:20:46.005Z,51.71
2022-09-26T23:23:13.303Z,51.93
2022-09-26T23:25:47.958Z,52.06
2022-09-26T23:28:15.119Z,51.91
2022-09-26T23:30:42.382Z,51.80
2022-09-26T23:33:09.431Z,51.80
2022-09-26T23:35:36.426Z,52.13
2022-09-26T23:38:05.391Z,52.05
2022-09-26T23:40:32.901Z,52.04
2022-09-26T23:42:59.954Z,52.07
2022-09-26T23:45:27.213Z,51.91
2022-09-26T23:47:54.020Z,51.93
2022-09-26T23:50:20.862Z,51.90
2022-09-26T23:52:47.935Z,52.18
2022-09-26T23:55:14.999Z,51.98
2022-09-26T23:57:41.830Z,52.16
